Morton S Bouchard Jr — WSE9678 — position and weather

sailwx.info

Track history (hours):
 
Tides and Currents Weather Stations Pressure Air Temp Water Temp Dewpoint Dewpoint Depression Visibility Wind Speed Wind Dir Waves Ship Positions

Morton S Bouchard Jr

Owner: BOUCHARD TRANSPORTATION CO INC, MELVILLE, NY. More information available from US FCC via Universal Licensing System and Coast Guard Vessel Documentation Center.

Last reported at 2014-Oct-01 19:33 UTC. Time now 2014-Oct-01 20:17 UTC.
Position N 41°08' W 072°33'.

Length 33 m; draft 6 m.

Type: Tug. MMSI: 367006550.

Date/timePositionNaut miles runAvg speedWind from/ knotsBaromVisibWave heightAir tempDewpointWater temp
2014-Oct-01 19:33N 41°08' W 072°33'9 9.3
2014-Oct-01 18:33N 41°11' W 072°21'10 9.7
2014-Oct-01 17:33N 41°14' W 072°09'9 8.7
2014-Oct-01 16:33N 41°14' W 071°58'8 8.2
2014-Oct-01 15:33N 41°16' W 071°47'8 7.9
2014-Oct-01 14:33N 41°18' W 071°37'8 7.8
2014-Oct-01 13:33N 41°18' W 071°26'8 7.9
2014-Oct-01 12:33N 41°19' W 071°16'8 8.1
2014-Oct-01 11:33N 41°23' W 071°07'9 8.1
2014-Oct-01 10:29N 41°28' W 070°57'8 8.3
2014-Oct-01 09:33N 41°32' W 070°48'9 7.9
2014-Oct-01 08:26N 41°39' W 070°41'116 7.7
2014-Sep-30 17:28N 43°32' W 070°07'6 6.5
2014-Sep-30 16:34N 43°37' W 070°12'3 3.0
2014-Sep-30 15:33N 43°39' W 070°14'0 0.0
2014-Sep-30 14:33N 43°39' W 070°14'0 0.0
2014-Sep-30 13:33N 43°39' W 070°14'0 0.0
2014-Sep-30 12:33N 43°39' W 070°14'0 0.0
2014-Sep-30 11:33N 43°39' W 070°14'0 0.0
2014-Sep-30 10:33N 43°39' W 070°14'0 0.0
2014-Sep-30 09:25N 43°39' W 070°14'0 0.0
2014-Sep-30 08:31N 43°39' W 070°14'0 0.0
2014-Sep-30 05:24N 43°39' W 070°14'0 0.0
2014-Sep-30 04:31N 43°39' W 070°14'0 0.0
2014-Sep-30 03:32N 43°39' W 070°14'0 0.0
2014-Sep-30 02:31N 43°39' W 070°14'0 0.0
2014-Sep-30 00:14N 43°39' W 070°14'0 0.0
2014-Sep-29 23:28N 43°39' W 070°14'0 0.0
2014-Sep-29 22:33N 43°39' W 070°14'0 0.0
2014-Sep-29 21:31N 43°39' W 070°14'0 0.0
2014-Sep-29 20:21N 43°39' W 070°14'0 0.0
2014-Sep-29 19:26N 43°39' W 070°14'1 1.7
2014-Sep-29 18:33N 43°38' W 070°13'4 4.1
2014-Sep-29 17:28N 43°35' W 070°09'57 6.3
2014-Sep-29 08:32N 42°39' W 070°23'6 6.6
2014-Sep-29 07:33N 42°33' W 070°26'7 6.4
2014-Sep-29 06:32N 42°26' W 070°28'6 6.2
2014-Sep-29 05:33N 42°21' W 070°29'6 6.1
2014-Sep-29 04:33N 42°14' W 070°29'6 6.4
2014-Sep-29 03:33N 42°08' W 070°29'7 6.4
2014-Sep-29 02:27N 42°01' W 070°28'6 6.6
2014-Sep-29 01:29N 41°55' W 070°28'5 5.6
2014-Sep-29 00:33N 41°49' W 070°29'7 4.9
2014-Sep-28 23:04N 41°45' W 070°36'3 6.6
2014-Sep-28 22:33N 41°42' W 070°39'7 7.0
2014-Sep-28 21:33N 41°36' W 070°43'7 6.5
2014-Sep-28 20:33N 41°31' W 070°49'4 3.7
2014-Sep-28 19:33N 41°29' W 070°53'6 5.9
2014-Sep-28 18:33N 41°27' W 071°00'6 6.1
2014-Sep-28 17:33N 41°23' W 071°07'6 6.4
2014-Sep-28 16:33N 41°23' W 071°15'6 5.9
2014-Sep-28 15:33N 41°22' W 071°23'6 5.6
2014-Sep-28 14:33N 41°18' W 071°28'5 5.0
2014-Sep-28 13:33N 41°18' W 071°35'4 4.5
2014-Sep-28 12:33N 41°17' W 071°41'5 4.6
2014-Sep-28 11:33N 41°16' W 071°47'5 5.5
2014-Sep-28 10:33N 41°15' W 071°54'6 6.4
2014-Sep-28 09:33N 41°14' W 072°02'6 6.2
2014-Sep-28 08:33N 41°14' W 072°10'6 6.2
2014-Sep-28 07:33N 41°12' W 072°18'6 5.6
2014-Sep-28 06:33N 41°10' W 072°25'5 4.7
2014-Sep-28 05:33N 41°08' W 072°31'4 4.1
2014-Sep-28 04:33N 41°07' W 072°36'4 4.0
2014-Sep-28 03:33N 41°06' W 072°42'4 4.0
2014-Sep-28 02:33N 41°05' W 072°47'4 4.3
2014-Sep-28 01:33N 41°04' W 072°52'4 4.5
2014-Sep-28 00:33N 41°03' W 072°58'5 4.9
2014-Sep-27 23:33N 41°02' W 073°04'5 5.2
2014-Sep-27 22:33N 41°02' W 073°11'4 4.0
2014-Sep-27 21:33N 41°01' W 073°16'7 7.2
2014-Sep-27 20:33N 40°60' W 073°26'7 7.4
2014-Sep-27 19:32N 40°56' W 073°35'7 7.1
2014-Sep-27 18:33N 40°53' W 073°43'7 6.2
2014-Sep-27 17:29N 40°48' W 073°49'6 5.9
2014-Sep-27 16:31N 40°47' W 073°56'5 5.2
2014-Sep-27 15:33N 40°42' W 073°59'5 4.8
2014-Sep-27 14:34N 40°39' W 074°04'2 2.2
2014-Sep-27 13:33N 40°39' W 074°07'0 0.0
2014-Sep-27 12:32N 40°39' W 074°07'0 0.0
2014-Sep-27 11:32N 40°39' W 074°07'0 0.4
2014-Sep-27 10:31N 40°39' W 074°07'0 0.0
2014-Sep-27 09:33N 40°39' W 074°07'0 0.0
2014-Sep-27 08:33N 40°39' W 074°07'2 2.1
2014-Sep-27 07:33N 40°39' W 074°04'2 2.0
2014-Sep-27 06:33N 40°39' W 074°07'0 0.0
2014-Sep-27 05:33N 40°39' W 074°07'0 0.0
2014-Sep-27 04:33N 40°39' W 074°07'0 0.0
2014-Sep-27 03:33N 40°39' W 074°07'0 0.1
2014-Sep-27 02:33N 40°39' W 074°07'2 2.0
2014-Sep-27 01:33N 40°39' W 074°04'1 1.2
2014-Sep-27 00:33N 40°39' W 074°03'0 0.2
2014-Sep-26 23:33N 40°39' W 074°03'0 0.1
2014-Sep-26 22:33N 40°39' W 074°03'0 0.1
2014-Sep-26 21:33N 40°39' W 074°03'0 0.0
2014-Sep-26 20:33N 40°39' W 074°03'3 3.4
2014-Sep-26 19:33N 40°39' W 074°07'4 4.5
2014-Sep-26 18:33N 40°36' W 074°12'1 1.1
2014-Sep-26 17:33N 40°35' W 074°13'0 0.0
2014-Sep-26 16:33N 40°35' W 074°13'0 0.0
2014-Sep-26 15:33N 40°35' W 074°13'0 0.0
2014-Sep-26 14:17N 40°35' W 074°13'5 6.5
2014-Sep-26 13:33N 40°39' W 074°08'1 0.8
2014-Sep-26 12:33N 40°39' W 074°07'0 0.0
2014-Sep-26 11:33N 40°39' W 074°07'0 0.0
2014-Sep-26 10:33N 40°39' W 074°07'0 0.0
2014-Sep-26 09:33N 40°39' W 074°07'0 0.0
2014-Sep-26 08:33N 40°39' W 074°07'0 0.0
2014-Sep-26 07:33N 40°39' W 074°07'0 0.0
2014-Sep-26 06:33N 40°39' W 074°07'0 0.0
2014-Sep-26 05:32N 40°39' W 074°07'0 0.0
2014-Sep-26 04:33N 40°39' W 074°07'0 0.0
2014-Sep-26 03:33N 40°39' W 074°07'0 0.0
2014-Sep-26 02:33N 40°39' W 074°07'0 0.0
2014-Sep-26 01:33N 40°39' W 074°07'0 0.0
2014-Sep-26 00:33N 40°39' W 074°07'0 0.0
2014-Sep-25 23:19N 40°39' W 074°07'0 0.0
2014-Sep-25 22:30N 40°39' W 074°07'0 0.0
2014-Sep-25 21:31N 40°39' W 074°07'0 0.0
2014-Sep-25 20:18N 40°39' W 074°07'0 0.0
2014-Sep-25 19:31N 40°39' W 074°07'0 0.0
2014-Sep-25 18:30N 40°39' W 074°07'2 1.8
2014-Sep-25 17:31N 40°39' W 074°09'2 1.2
2014-Sep-25 15:32N 40°37' W 074°12'8 2.6
2014-Sep-25 12:33N 40°40' W 074°02'0 0.0
2014-Sep-25 11:33N 40°40' W 074°02'0 0.0
2014-Sep-25 10:33N 40°40' W 074°02'0 0.0
2014-Sep-25 09:33N 40°40' W 074°02'0 0.0
2014-Sep-25 08:33N 40°40' W 074°02'0 0.0
2014-Sep-25 07:33N 40°40' W 074°02'0 0.0
2014-Sep-25 06:33N 40°40' W 074°02'0 0.0
2014-Sep-25 05:33N 40°40' W 074°02'0 0.0
2014-Sep-25 04:33N 40°40' W 074°02'3 3.2
2014-Sep-25 03:33N 40°43' W 074°01'3 3.0
2014-Sep-25 02:33N 40°45' W 073°58'5 5.3
2014-Sep-25 01:33N 40°48' W 073°53'6 5.6
2014-Sep-25 00:33N 40°50' W 073°46'6 6.4
2014-Sep-24 23:33N 40°55' W 073°40'7 6.6
2014-Sep-24 22:31N 40°58' W 073°32'7 6.9
2014-Sep-24 21:33N 41°01' W 073°24'7 6.6
2014-Sep-24 20:33N 41°02' W 073°15'8 6.7
2014-Sep-24 19:22N 41°03' W 073°05'5 6.7
2014-Sep-24 18:33N 41°04' W 072°58'6 6.3
2014-Sep-24 17:32N 41°05' W 072°49'6 6.2
2014-Sep-24 16:33N 41°06' W 072°41'6 5.7
2014-Sep-24 15:33N 41°07' W 072°34'6 6.0
2014-Sep-24 14:33N 41°10' W 072°27'7 6.7
2014-Sep-24 13:33N 41°11' W 072°18'9 9.0
2014-Sep-24 12:33N 41°14' W 072°07'10 9.7
2014-Sep-24 11:33N 41°15' W 071°54'9 9.0
2014-Sep-24 10:33N 41°17' W 071°42'9 8.6
2014-Sep-24 09:33N 41°18' W 071°31'8 8.2
2014-Sep-24 08:33N 41°21' W 071°21'9 8.6
2014-Sep-24 07:33N 41°22' W 071°09'9 8.6
2014-Sep-24 06:33N 41°27' W 070°60'9 9.0
2014-Sep-24 05:33N 41°31' W 070°49'8 7.9
2014-Sep-24 04:33N 41°37' W 070°42'43 6.9
2014-Sep-23 22:17N 42°20' W 070°46'6 7.8
2014-Sep-23 21:33N 42°23' W 070°53'4 0.2
2014-Sep-22 17:04N 42°20' W 070°58'0 0.0
2014-Sep-22 14:20N 42°20' W 070°58'0 0.1
2014-Sep-22 12:28N 42°21' W 070°59'0 0.1
2014-Sep-22 11:23N 42°20' W 070°58'0 0.1
2014-Sep-22 10:33N 42°20' W 070°59'0 0.1
2014-Sep-22 09:33N 42°20' W 070°58'0 0.0
2014-Sep-22 08:33N 42°20' W 070°58'0 0.0
2014-Sep-22 05:15N 42°20' W 070°58'0 0.0
2014-Sep-22 04:33N 42°20' W 070°58'3 2.9
2014-Sep-22 03:33N 42°22' W 070°55'4 3.8
2014-Sep-22 02:32N 42°23' W 070°50'19 6.1
2014-Sep-21 23:25N 42°09' W 070°34'20 6.3
2014-Sep-21 20:16N 41°49' W 070°29'  
Track history (hours):
 
Tides and Currents Weather Stations Pressure Air Temp Water Temp Dewpoint Dewpoint Depression Visibility Wind Speed Wind Dir Waves Ship Positions

Morton S Bouchard Jr

Owner: BOUCHARD TRANSPORTATION CO INC, MELVILLE, NY. More information available from US FCC via Universal Licensing System and Coast Guard Vessel Documentation Center.

Last reported at 2014-Oct-01 19:33 UTC. Time now 2014-Oct-01 20:17 UTC.
Position N 41°08' W 072°33'.

Length 33 m; draft 6 m.

Type: Tug. MMSI: 367006550.

Date/timePositionNaut miles runAvg speedWind from/ knotsBaromVisibWave heightAir tempDewpointWater temp
2014-Oct-01 19:33N 41°08' W 072°33'9 9.3
2014-Oct-01 18:33N 41°11' W 072°21'10 9.7
2014-Oct-01 17:33N 41°14' W 072°09'9 8.7
2014-Oct-01 16:33N 41°14' W 071°58'8 8.2
2014-Oct-01 15:33N 41°16' W 071°47'8 7.9
2014-Oct-01 14:33N 41°18' W 071°37'8 7.8
2014-Oct-01 13:33N 41°18' W 071°26'8 7.9
2014-Oct-01 12:33N 41°19' W 071°16'8 8.1
2014-Oct-01 11:33N 41°23' W 071°07'9 8.1
2014-Oct-01 10:29N 41°28' W 070°57'8 8.3
2014-Oct-01 09:33N 41°32' W 070°48'9 7.9
2014-Oct-01 08:26N 41°39' W 070°41'116 7.7
2014-Sep-30 17:28N 43°32' W 070°07'6 6.5
2014-Sep-30 16:34N 43°37' W 070°12'3 3.0
2014-Sep-30 15:33N 43°39' W 070°14'0 0.0
2014-Sep-30 14:33N 43°39' W 070°14'0 0.0
2014-Sep-30 13:33N 43°39' W 070°14'0 0.0
2014-Sep-30 12:33N 43°39' W 070°14'0 0.0
2014-Sep-30 11:33N 43°39' W 070°14'0 0.0
2014-Sep-30 10:33N 43°39' W 070°14'0 0.0
2014-Sep-30 09:25N 43°39' W 070°14'0 0.0
2014-Sep-30 08:31N 43°39' W 070°14'0 0.0
2014-Sep-30 05:24N 43°39' W 070°14'0 0.0
2014-Sep-30 04:31N 43°39' W 070°14'0 0.0
2014-Sep-30 03:32N 43°39' W 070°14'0 0.0
2014-Sep-30 02:31N 43°39' W 070°14'0 0.0
2014-Sep-30 00:14N 43°39' W 070°14'0 0.0
2014-Sep-29 23:28N 43°39' W 070°14'0 0.0
2014-Sep-29 22:33N 43°39' W 070°14'0 0.0
2014-Sep-29 21:31N 43°39' W 070°14'0 0.0
2014-Sep-29 20:21N 43°39' W 070°14'0 0.0
2014-Sep-29 19:26N 43°39' W 070°14'1 1.7
2014-Sep-29 18:33N 43°38' W 070°13'4 4.1
2014-Sep-29 17:28N 43°35' W 070°09'57 6.3
2014-Sep-29 08:32N 42°39' W 070°23'6 6.6
2014-Sep-29 07:33N 42°33' W 070°26'7 6.4
2014-Sep-29 06:32N 42°26' W 070°28'6 6.2
2014-Sep-29 05:33N 42°21' W 070°29'6 6.1
2014-Sep-29 04:33N 42°14' W 070°29'6 6.4
2014-Sep-29 03:33N 42°08' W 070°29'7 6.4
2014-Sep-29 02:27N 42°01' W 070°28'6 6.6
2014-Sep-29 01:29N 41°55' W 070°28'5 5.6
2014-Sep-29 00:33N 41°49' W 070°29'7 4.9
2014-Sep-28 23:04N 41°45' W 070°36'3 6.6
2014-Sep-28 22:33N 41°42' W 070°39'7 7.0
2014-Sep-28 21:33N 41°36' W 070°43'7 6.5
2014-Sep-28 20:33N 41°31' W 070°49'4 3.7
2014-Sep-28 19:33N 41°29' W 070°53'6 5.9
2014-Sep-28 18:33N 41°27' W 071°00'6 6.1
2014-Sep-28 17:33N 41°23' W 071°07'6 6.4
2014-Sep-28 16:33N 41°23' W 071°15'6 5.9
2014-Sep-28 15:33N 41°22' W 071°23'6 5.6
2014-Sep-28 14:33N 41°18' W 071°28'5 5.0
2014-Sep-28 13:33N 41°18' W 071°35'4 4.5
2014-Sep-28 12:33N 41°17' W 071°41'5 4.6
2014-Sep-28 11:33N 41°16' W 071°47'5 5.5
2014-Sep-28 10:33N 41°15' W 071°54'6 6.4
2014-Sep-28 09:33N 41°14' W 072°02'6 6.2
2014-Sep-28 08:33N 41°14' W 072°10'6 6.2
2014-Sep-28 07:33N 41°12' W 072°18'6 5.6
2014-Sep-28 06:33N 41°10' W 072°25'5 4.7
2014-Sep-28 05:33N 41°08' W 072°31'4 4.1
2014-Sep-28 04:33N 41°07' W 072°36'4 4.0
2014-Sep-28 03:33N 41°06' W 072°42'4 4.0
2014-Sep-28 02:33N 41°05' W 072°47'4 4.3
2014-Sep-28 01:33N 41°04' W 072°52'4 4.5
2014-Sep-28 00:33N 41°03' W 072°58'5 4.9
2014-Sep-27 23:33N 41°02' W 073°04'5 5.2
2014-Sep-27 22:33N 41°02' W 073°11'4 4.0
2014-Sep-27 21:33N 41°01' W 073°16'7 7.2
2014-Sep-27 20:33N 40°60' W 073°26'7 7.4
2014-Sep-27 19:32N 40°56' W 073°35'7 7.1
2014-Sep-27 18:33N 40°53' W 073°43'7 6.2
2014-Sep-27 17:29N 40°48' W 073°49'6 5.9
2014-Sep-27 16:31N 40°47' W 073°56'5 5.2
2014-Sep-27 15:33N 40°42' W 073°59'5 4.8
2014-Sep-27 14:34N 40°39' W 074°04'2 2.2
2014-Sep-27 13:33N 40°39' W 074°07'0 0.0
2014-Sep-27 12:32N 40°39' W 074°07'0 0.0
2014-Sep-27 11:32N 40°39' W 074°07'0 0.4
2014-Sep-27 10:31N 40°39' W 074°07'0 0.0
2014-Sep-27 09:33N 40°39' W 074°07'0 0.0
2014-Sep-27 08:33N 40°39' W 074°07'2 2.1
2014-Sep-27 07:33N 40°39' W 074°04'2 2.0
2014-Sep-27 06:33N 40°39' W 074°07'0 0.0
2014-Sep-27 05:33N 40°39' W 074°07'0 0.0
2014-Sep-27 04:33N 40°39' W 074°07'0 0.0
2014-Sep-27 03:33N 40°39' W 074°07'0 0.1
2014-Sep-27 02:33N 40°39' W 074°07'2 2.0
2014-Sep-27 01:33N 40°39' W 074°04'1 1.2
2014-Sep-27 00:33N 40°39' W 074°03'0 0.2
2014-Sep-26 23:33N 40°39' W 074°03'0 0.1
2014-Sep-26 22:33N 40°39' W 074°03'0 0.1
2014-Sep-26 21:33N 40°39' W 074°03'0 0.0
2014-Sep-26 20:33N 40°39' W 074°03'3 3.4
2014-Sep-26 19:33N 40°39' W 074°07'4 4.5
2014-Sep-26 18:33N 40°36' W 074°12'1 1.1
2014-Sep-26 17:33N 40°35' W 074°13'0 0.0
2014-Sep-26 16:33N 40°35' W 074°13'0 0.0
2014-Sep-26 15:33N 40°35' W 074°13'0 0.0
2014-Sep-26 14:17N 40°35' W 074°13'5 6.5
2014-Sep-26 13:33N 40°39' W 074°08'1 0.8
2014-Sep-26 12:33N 40°39' W 074°07'0 0.0
2014-Sep-26 11:33N 40°39' W 074°07'0 0.0
2014-Sep-26 10:33N 40°39' W 074°07'0 0.0
2014-Sep-26 09:33N 40°39' W 074°07'0 0.0
2014-Sep-26 08:33N 40°39' W 074°07'0 0.0
2014-Sep-26 07:33N 40°39' W 074°07'0 0.0
2014-Sep-26 06:33N 40°39' W 074°07'0 0.0
2014-Sep-26 05:32N 40°39' W 074°07'0 0.0
2014-Sep-26 04:33N 40°39' W 074°07'0 0.0
2014-Sep-26 03:33N 40°39' W 074°07'0 0.0
2014-Sep-26 02:33N 40°39' W 074°07'0 0.0
2014-Sep-26 01:33N 40°39' W 074°07'0 0.0
2014-Sep-26 00:33N 40°39' W 074°07'0 0.0
2014-Sep-25 23:19N 40°39' W 074°07'0 0.0
2014-Sep-25 22:30N 40°39' W 074°07'0 0.0
2014-Sep-25 21:31N 40°39' W 074°07'0 0.0
2014-Sep-25 20:18N 40°39' W 074°07'0 0.0
2014-Sep-25 19:31N 40°39' W 074°07'0 0.0
2014-Sep-25 18:30N 40°39' W 074°07'2 1.8
2014-Sep-25 17:31N 40°39' W 074°09'2 1.2
2014-Sep-25 15:32N 40°37' W 074°12'8 2.6
2014-Sep-25 12:33N 40°40' W 074°02'0 0.0
2014-Sep-25 11:33N 40°40' W 074°02'0 0.0
2014-Sep-25 10:33N 40°40' W 074°02'0 0.0
2014-Sep-25 09:33N 40°40' W 074°02'0 0.0
2014-Sep-25 08:33N 40°40' W 074°02'0 0.0
2014-Sep-25 07:33N 40°40' W 074°02'0 0.0
2014-Sep-25 06:33N 40°40' W 074°02'0 0.0
2014-Sep-25 05:33N 40°40' W 074°02'0 0.0
2014-Sep-25 04:33N 40°40' W 074°02'3 3.2
2014-Sep-25 03:33N 40°43' W 074°01'3 3.0
2014-Sep-25 02:33N 40°45' W 073°58'5 5.3
2014-Sep-25 01:33N 40°48' W 073°53'6 5.6
2014-Sep-25 00:33N 40°50' W 073°46'6 6.4
2014-Sep-24 23:33N 40°55' W 073°40'7 6.6
2014-Sep-24 22:31N 40°58' W 073°32'7 6.9
2014-Sep-24 21:33N 41°01' W 073°24'7 6.6
2014-Sep-24 20:33N 41°02' W 073°15'8 6.7
2014-Sep-24 19:22N 41°03' W 073°05'5 6.7
2014-Sep-24 18:33N 41°04' W 072°58'6 6.3
2014-Sep-24 17:32N 41°05' W 072°49'6 6.2
2014-Sep-24 16:33N 41°06' W 072°41'6 5.7
2014-Sep-24 15:33N 41°07' W 072°34'6 6.0
2014-Sep-24 14:33N 41°10' W 072°27'7 6.7
2014-Sep-24 13:33N 41°11' W 072°18'9 9.0
2014-Sep-24 12:33N 41°14' W 072°07'10 9.7
2014-Sep-24 11:33N 41°15' W 071°54'9 9.0
2014-Sep-24 10:33N 41°17' W 071°42'9 8.6
2014-Sep-24 09:33N 41°18' W 071°31'8 8.2
2014-Sep-24 08:33N 41°21' W 071°21'9 8.6
2014-Sep-24 07:33N 41°22' W 071°09'9 8.6
2014-Sep-24 06:33N 41°27' W 070°60'9 9.0
2014-Sep-24 05:33N 41°31' W 070°49'8 7.9
2014-Sep-24 04:33N 41°37' W 070°42'43 6.9
2014-Sep-23 22:17N 42°20' W 070°46'6 7.8
2014-Sep-23 21:33N 42°23' W 070°53'4 0.2
2014-Sep-22 17:04N 42°20' W 070°58'0 0.0
2014-Sep-22 14:20N 42°20' W 070°58'0 0.1
2014-Sep-22 12:28N 42°21' W 070°59'0 0.1
2014-Sep-22 11:23N 42°20' W 070°58'0 0.1
2014-Sep-22 10:33N 42°20' W 070°59'0 0.1
2014-Sep-22 09:33N 42°20' W 070°58'0 0.0
2014-Sep-22 08:33N 42°20' W 070°58'0 0.0
2014-Sep-22 05:15N 42°20' W 070°58'0 0.0
2014-Sep-22 04:33N 42°20' W 070°58'3 2.9
2014-Sep-22 03:33N 42°22' W 070°55'4 3.8
2014-Sep-22 02:32N 42°23' W 070°50'19 6.1
2014-Sep-21 23:25N 42°09' W 070°34'20 6.3
2014-Sep-21 20:16N 41°49' W 070°29'  

Dump ship's entire track history